KELM/ELM METAR and TAF weather

Enter ICAO airport designator
Station Type Date Time Source
KELM METAR 2019/02/23 02:53 UTC NOAA

KELM 230253Z 00000KT 9SM CLR M03/M06 A3045 RMK AO2 SLP324 T10331061 51010


Station Type Date Time Source
KELM Decoded METAR 2019/02/23 02:53 UTC NOAA

ELMIRA COUNTY AIRPORT, NY, United States (KELM) 42-10N 76-54W 302M
Feb 22, 2019 - 09:53 PM EST / 2019.02.23 0253 UTC
Wind: Calm:0
Visibility: 9 mile(s):0
Sky conditions: clear
Temperature: 26.1 F (-3.3 C)
Dew Point: 21.0 F (-6.1 C)
Relative Humidity: 80%
Pressure (altimeter): 30.45 in. Hg (1031 hPa)
Pressure tendency: 0.03 inches (1.0 hPa) higher than three hours ago
ob: KELM 230253Z 00000KT 9SM CLR M03/M06 A3045 RMK AO2 SLP324 T10331061 51010
cycle: 3

Station Type Date Time Source
KELM TAF 2019/02/22 18:22 UTC NOAA

TAF KELM 221720Z 2218/2318 33006KT P6SM SCT070
FM230200 00000KT P6SM SCT130
FM231500 VRB04KT P6SM BKN250


Example: see airport list